sensor_id;sensor_type;location;lat;lon;timestamp;pressure;altitude;pressure_sealevel;temperature;humidity
52745;BME280;38637;49.984;20.426;2023-04-27T00:01:13;99465.25;;;3.63;76.16
52745;BME280;38637;49.984;20.426;2023-04-27T00:03:39;99472.31;;;3.57;76.16
52745;BME280;38637;49.984;20.426;2023-04-27T00:06:06;99466.31;;;3.55;75.77
52745;BME280;38637;49.984;20.426;2023-04-27T00:08:32;99462.19;;;3.46;76.36
52745;BME280;38637;49.984;20.426;2023-04-27T00:10:58;99467.41;;;3.41;77.11
52745;BME280;38637;49.984;20.426;2023-04-27T00:13:23;99470.50;;;3.44;77.83
52745;BME280;38637;49.984;20.426;2023-04-27T00:15:49;99463.66;;;3.42;77.77
52745;BME280;38637;49.984;20.426;2023-04-27T00:18:14;99459.34;;;3.28;77.67
52745;BME280;38637;49.984;20.426;2023-04-27T00:20:39;99472.41;;;3.37;77.84
52745;BME280;38637;49.984;20.426;2023-04-27T00:23:05;99464.31;;;3.31;78.36
52745;BME280;38637;49.984;20.426;2023-04-27T00:25:30;99467.19;;;3.36;78.64
52745;BME280;38637;49.984;20.426;2023-04-27T00:27:56;99463.25;;;3.38;78.27
52745;BME280;38637;49.984;20.426;2023-04-27T00:30:21;99465.09;;;3.44;78.07
52745;BME280;38637;49.984;20.426;2023-04-27T00:32:46;99460.09;;;3.48;78.06
52745;BME280;38637;49.984;20.426;2023-04-27T00:35:12;99465.50;;;3.48;78.69
52745;BME280;38637;49.984;20.426;2023-04-27T00:37:37;99461.38;;;3.39;78.58
52745;BME280;38637;49.984;20.426;2023-04-27T00:40:04;99464.91;;;3.39;78.76
52745;BME280;38637;49.984;20.426;2023-04-27T00:42:32;99468.66;;;3.38;79.66
52745;BME280;38637;49.984;20.426;2023-04-27T00:44:57;99464.50;;;3.36;78.83
52745;BME280;38637;49.984;20.426;2023-04-27T00:47:25;99458.69;;;3.39;78.91
52745;BME280;38637;49.984;20.426;2023-04-27T00:49:51;99467.16;;;3.42;79.40
52745;BME280;38637;49.984;20.426;2023-04-27T00:52:17;99467.59;;;3.46;78.45
52745;BME280;38637;49.984;20.426;2023-04-27T00:54:42;99475.88;;;3.51;78.74
52745;BME280;38637;49.984;20.426;2023-04-27T00:57:08;99464.25;;;3.51;78.57
52745;BME280;38637;49.984;20.426;2023-04-27T00:59:34;99464.06;;;3.52;78.55
52745;BME280;38637;49.984;20.426;2023-04-27T01:02:00;99465.72;;;3.47;78.73
52745;BME280;38637;49.984;20.426;2023-04-27T01:04:25;99471.97;;;3.40;78.92
52745;BME280;38637;49.984;20.426;2023-04-27T01:06:52;99473.84;;;3.40;79.35
52745;BME280;38637;49.984;20.426;2023-04-27T01:09:18;99470.72;;;3.36;78.92
52745;BME280;38637;49.984;20.426;2023-04-27T01:11:45;99469.72;;;3.31;79.44
52745;BME280;38637;49.984;20.426;2023-04-27T01:14:10;99482.38;;;3.23;78.97
52745;BME280;38637;49.984;20.426;2023-04-27T01:16:35;99475.16;;;3.11;79.96
52745;BME280;38637;49.984;20.426;2023-04-27T01:19:01;99482.22;;;3.05;80.24
52745;BME280;38637;49.984;20.426;2023-04-27T01:21:27;99484.91;;;3.05;80.05
52745;BME280;38637;49.984;20.426;2023-04-27T01:23:53;99488.03;;;3.02;79.93
52745;BME280;38637;49.984;20.426;2023-04-27T01:26:18;99483.88;;;2.99;79.69
52745;BME280;38637;49.984;20.426;2023-04-27T01:28:44;99491.16;;;2.99;80.31
52745;BME280;38637;49.984;20.426;2023-04-27T01:31:10;99489.72;;;3.03;80.16
52745;BME280;38637;49.984;20.426;2023-04-27T01:33:36;99488.84;;;3.03;80.40
52745;BME280;38637;49.984;20.426;2023-04-27T01:36:01;99497.16;;;3.01;80.49
52745;BME280;38637;49.984;20.426;2023-04-27T01:38:26;99495.09;;;3.03;80.61
52745;BME280;38637;49.984;20.426;2023-04-27T01:40:52;99491.56;;;3.03;80.66
52745;BME280;38637;49.984;20.426;2023-04-27T01:43:19;99493.25;;;2.97;80.48
52745;BME280;38637;49.984;20.426;2023-04-27T01:45:45;99494.28;;;2.89;80.92
52745;BME280;38637;49.984;20.426;2023-04-27T01:48:10;99496.16;;;2.89;81.31
52745;BME280;38637;49.984;20.426;2023-04-27T01:50:36;99493.22;;;2.90;81.12
52745;BME280;38637;49.984;20.426;2023-04-27T01:53:01;99496.75;;;2.84;81.14
52745;BME280;38637;49.984;20.426;2023-04-27T01:55:27;99493.22;;;2.84;81.36
52745;BME280;38637;49.984;20.426;2023-04-27T01:57:53;99488.88;;;2.83;81.29
52745;BME280;38637;49.984;20.426;2023-04-27T02:00:18;99494.28;;;2.83;81.61
52745;BME280;38637;49.984;20.426;2023-04-27T02:02:43;99500.09;;;2.80;82.07
52745;BME280;38637;49.984;20.426;2023-04-27T02:05:09;99486.81;;;2.71;81.62
52745;BME280;38637;49.984;20.426;2023-04-27T02:07:34;99488.88;;;2.63;82.15
52745;BME280;38637;49.984;20.426;2023-04-27T02:10:00;99499.88;;;2.61;82.68
52745;BME280;38637;49.984;20.426;2023-04-27T02:12:25;99501.13;;;2.59;82.83
52745;BME280;38637;49.984;20.426;2023-04-27T02:14:50;99500.50;;;2.50;82.90
52745;BME280;38637;49.984;20.426;2023-04-27T02:17:16;99497.97;;;2.42;83.87
52745;BME280;38637;49.984;20.426;2023-04-27T02:19:41;99500.47;;;2.37;83.98
52745;BME280;38637;49.984;20.426;2023-04-27T02:22:06;99495.91;;;2.37;83.95
52745;BME280;38637;49.984;20.426;2023-04-27T02:24:34;99493.22;;;2.37;83.39
52745;BME280;38637;49.984;20.426;2023-04-27T02:26:59;99502.53;;;2.41;83.52
52745;BME280;38637;49.984;20.426;2023-04-27T02:29:29;99495.28;;;2.35;83.69
52745;BME280;38637;49.984;20.426;2023-04-27T02:31:54;99502.13;;;2.31;83.84
52745;BME280;38637;49.984;20.426;2023-04-27T02:34:19;99501.47;;;2.22;84.62
52745;BME280;38637;49.984;20.426;2023-04-27T02:36:45;99502.94;;;2.25;84.56
52745;BME280;38637;49.984;20.426;2023-04-27T02:39:10;99501.47;;;2.22;84.20
52745;BME280;38637;49.984;20.426;2023-04-27T02:41:35;99513.91;;;2.23;84.39
52745;BME280;38637;49.984;20.426;2023-04-27T02:44:01;99504.19;;;2.22;84.02
52745;BME280;38637;49.984;20.426;2023-04-27T02:46:26;99509.13;;;2.12;84.25
52745;BME280;38637;49.984;20.426;2023-04-27T02:48:51;99510.75;;;2.00;85.03
52745;BME280;38637;49.984;20.426;2023-04-27T02:51:16;99509.72;;;1.94;85.39
52745;BME280;38637;49.984;20.426;2023-04-27T02:53:42;99506.59;;;1.91;85.58
52745;BME280;38637;49.984;20.426;2023-04-27T02:56:07;99506.19;;;1.94;85.72
52745;BME280;38637;49.984;20.426;2023-04-27T02:58:32;99501.41;;;1.96;85.23
52745;BME280;38637;49.984;20.426;2023-04-27T03:00:58;99504.09;;;1.89;85.40
52745;BME280;38637;49.984;20.426;2023-04-27T03:03:23;99510.91;;;1.85;85.79
52745;BME280;38637;49.984;20.426;2023-04-27T03:05:48;99503.88;;;1.84;85.53
52745;BME280;38637;49.984;20.426;2023-04-27T03:08:14;99508.59;;;1.75;85.96
52745;BME280;38637;49.984;20.426;2023-04-27T03:10:39;99514.00;;;1.75;85.68
52745;BME280;38637;49.984;20.426;2023-04-27T03:13:05;99516.03;;;1.73;85.83
52745;BME280;38637;49.984;20.426;2023-04-27T03:15:30;99520.63;;;1.79;85.80
52745;BME280;38637;49.984;20.426;2023-04-27T03:17:56;99519.97;;;1.77;85.35
52745;BME280;38637;49.984;20.426;2023-04-27T03:20:21;99525.41;;;1.84;85.23
52745;BME280;38637;49.984;20.426;2023-04-27T03:22:46;99521.66;;;1.78;85.46
52745;BME280;38637;49.984;20.426;2023-04-27T03:25:12;99524.56;;;1.83;85.38
52745;BME280;38637;49.984;20.426;2023-04-27T03:27:37;99524.16;;;1.87;85.12
52745;BME280;38637;49.984;20.426;2023-04-27T03:30:03;99528.75;;;1.93;84.95
52745;BME280;38637;49.984;20.426;2023-04-27T03:32:29;99527.34;;;2.03;85.00
52745;BME280;38637;49.984;20.426;2023-04-27T03:34:54;99528.59;;;2.14;85.07
52745;BME280;38637;49.984;20.426;2023-04-27T03:37:20;99525.97;;;2.27;84.89
52745;BME280;38637;49.984;20.426;2023-04-27T03:39:45;99527.03;;;2.40;84.37
52745;BME280;38637;49.984;20.426;2023-04-27T03:42:11;99528.25;;;2.50;84.15
52745;BME280;38637;49.984;20.426;2023-04-27T03:44:36;99529.53;;;2.61;83.57
52745;BME280;38637;49.984;20.426;2023-04-27T03:47:02;99519.56;;;2.68;82.79
52745;BME280;38637;49.984;20.426;2023-04-27T03:49:27;99537.44;;;2.89;82.93
52745;BME280;38637;49.984;20.426;2023-04-27T03:51:53;99537.22;;;3.04;82.06
52745;BME280;38637;49.984;20.426;2023-04-27T03:54:18;99546.97;;;3.25;81.53
52745;BME280;38637;49.984;20.426;2023-04-27T03:56:43;99546.47;;;3.48;80.95
52745;BME280;38637;49.984;20.426;2023-04-27T03:59:09;99543.53;;;3.69;80.73
52745;BME280;38637;49.984;20.426;2023-04-27T04:01:35;99543.47;;;3.89;79.60
52745;BME280;38637;49.984;20.426;2023-04-27T04:04:00;99548.75;;;4.09;79.11
52745;BME280;38637;49.984;20.426;2023-04-27T04:06:26;99546.41;;;4.26;78.13
52745;BME280;38637;49.984;20.426;2023-04-27T04:08:52;99548.00;;;4.34;77.44
52745;BME280;38637;49.984;20.426;2023-04-27T04:11:17;99553.59;;;4.39;76.70
52745;BME280;38637;49.984;20.426;2023-04-27T04:13:43;99567.47;;;4.49;76.48
52745;BME280;38637;49.984;20.426;2023-04-27T04:16:08;99556.78;;;4.61;75.84
52745;BME280;38637;49.984;20.426;2023-04-27T04:18:35;99559.41;;;4.74;75.27
52745;BME280;38637;49.984;20.426;2023-04-27T04:21:01;99568.25;;;4.88;74.73
52745;BME280;38637;49.984;20.426;2023-04-27T04:23:27;99563.56;;;5.02;74.60
52745;BME280;38637;49.984;20.426;2023-04-27T04:25:53;99572.41;;;5.16;74.42
52745;BME280;38637;49.984;20.426;2023-04-27T04:28:21;99566.44;;;5.32;74.16
52745;BME280;38637;49.984;20.426;2023-04-27T04:30:46;99569.84;;;5.46;73.27
52745;BME280;38637;49.984;20.426;2023-04-27T04:33:12;99567.81;;;5.60;73.05
52745;BME280;38637;49.984;20.426;2023-04-27T04:35:38;99579.91;;;5.82;72.52
52745;BME280;38637;49.984;20.426;2023-04-27T04:38:05;99577.66;;;5.97;71.68
52745;BME280;38637;49.984;20.426;2023-04-27T04:40:31;99588.81;;;6.08;70.35
52745;BME280;38637;49.984;20.426;2023-04-27T04:42:56;99582.00;;;6.17;70.44
52745;BME280;38637;49.984;20.426;2023-04-27T04:45:21;99590.31;;;6.22;69.72
52745;BME280;38637;49.984;20.426;2023-04-27T04:47:50;99589.59;;;6.27;69.77
52745;BME280;38637;49.984;20.426;2023-04-27T04:50:15;99584.44;;;6.25;69.56
52745;BME280;38637;49.984;20.426;2023-04-27T04:52:41;99589.03;;;6.25;69.46
52745;BME280;38637;49.984;20.426;2023-04-27T04:55:06;99589.41;;;6.28;69.21
52745;BME280;38637;49.984;20.426;2023-04-27T04:57:32;99582.72;;;6.42;69.06
52745;BME280;38637;49.984;20.426;2023-04-27T04:59:57;99586.09;;;6.56;68.54
52745;BME280;38637;49.984;20.426;2023-04-27T05:02:22;99593.41;;;6.86;68.05
52745;BME280;38637;49.984;20.426;2023-04-27T05:04:48;99589.44;;;7.24;66.73
52745;BME280;38637;49.984;20.426;2023-04-27T05:07:13;99597.38;;;7.49;65.89
52745;BME280;38637;49.984;20.426;2023-04-27T05:09:38;99590.88;;;7.62;65.00
52745;BME280;38637;49.984;20.426;2023-04-27T05:12:04;99605.66;;;7.66;64.86
52745;BME280;38637;49.984;20.426;2023-04-27T05:14:31;99602.09;;;7.77;64.51
52745;BME280;38637;49.984;20.426;2023-04-27T05:16:56;99600.91;;;7.85;64.66
52745;BME280;38637;49.984;20.426;2023-04-27T05:19:21;99605.06;;;7.87;64.57
52745;BME280;38637;49.984;20.426;2023-04-27T05:21:46;99602.69;;;7.79;63.73
52745;BME280;38637;49.984;20.426;2023-04-27T05:24:12;99598.56;;;7.65;63.62
52745;BME280;38637;49.984;20.426;2023-04-27T05:26:38;99600.78;;;7.56;63.76
52745;BME280;38637;49.984;20.426;2023-04-27T05:29:03;99605.78;;;7.47;64.30
52745;BME280;38637;49.984;20.426;2023-04-27T05:31:28;99608.69;;;7.34;65.13
52745;BME280;38637;49.984;20.426;2023-04-27T05:33:54;99607.66;;;7.35;65.28
52745;BME280;38637;49.984;20.426;2023-04-27T05:36:19;99603.41;;;7.39;65.49
52745;BME280;38637;49.984;20.426;2023-04-27T05:38:45;99604.81;;;7.42;65.39
52745;BME280;38637;49.984;20.426;2023-04-27T05:41:10;99607.53;;;7.42;66.70
52745;BME280;38637;49.984;20.426;2023-04-27T05:43:36;99610.00;;;7.55;67.21
52745;BME280;38637;49.984;20.426;2023-04-27T05:46:02;99603.63;;;7.61;66.83
52745;BME280;38637;49.984;20.426;2023-04-27T05:48:28;99614.25;;;7.74;66.25
52745;BME280;38637;49.984;20.426;2023-04-27T05:51:00;99608.13;;;7.91;66.24
52745;BME280;38637;49.984;20.426;2023-04-27T05:53:26;99611.41;;;8.04;64.54
52745;BME280;38637;49.984;20.426;2023-04-27T05:55:51;99617.06;;;8.15;63.27
52745;BME280;38637;49.984;20.426;2023-04-27T05:58:17;99626.28;;;8.14;63.05
52745;BME280;38637;49.984;20.426;2023-04-27T06:00:42;99621.09;;;8.12;62.93
52745;BME280;38637;49.984;20.426;2023-04-27T06:03:07;99620.50;;;7.98;63.04
52745;BME280;38637;49.984;20.426;2023-04-27T06:05:33;99617.44;;;7.95;62.83
52745;BME280;38637;49.984;20.426;2023-04-27T06:07:58;99622.88;;;7.95;63.01
52745;BME280;38637;49.984;20.426;2023-04-27T06:10:23;99618.19;;;7.78;63.45
52745;BME280;38637;49.984;20.426;2023-04-27T06:12:49;99625.84;;;7.81;63.48
52745;BME280;38637;49.984;20.426;2023-04-27T06:15:14;99625.97;;;7.87;63.35
52745;BME280;38637;49.984;20.426;2023-04-27T06:17:40;99641.56;;;7.91;63.62
52745;BME280;38637;49.984;20.426;2023-04-27T06:20:08;99630.69;;;7.91;63.50
52745;BME280;38637;49.984;20.426;2023-04-27T06:22:34;99638.16;;;7.96;63.32
52745;BME280;38637;49.984;20.426;2023-04-27T06:25:01;99636.47;;;7.95;63.32
52745;BME280;38637;49.984;20.426;2023-04-27T06:27:27;99636.13;;;7.91;63.10
52745;BME280;38637;49.984;20.426;2023-04-27T06:29:52;99640.63;;;7.86;63.64
52745;BME280;38637;49.984;20.426;2023-04-27T06:32:17;99635.31;;;7.91;63.63
52745;BME280;38637;49.984;20.426;2023-04-27T06:34:43;99636.25;;;7.85;63.55
52745;BME280;38637;49.984;20.426;2023-04-27T06:37:08;99645.38;;;7.90;63.85
52745;BME280;38637;49.984;20.426;2023-04-27T06:39:33;99642.38;;;7.92;64.13
52745;BME280;38637;49.984;20.426;2023-04-27T06:41:59;99649.38;;;7.99;63.92
52745;BME280;38637;49.984;20.426;2023-04-27T06:44:24;99643.22;;;8.04;63.80
52745;BME280;38637;49.984;20.426;2023-04-27T06:46:50;99634.81;;;8.05;63.44
52745;BME280;38637;49.984;20.426;2023-04-27T06:49:15;99647.81;;;8.15;63.46
52745;BME280;38637;49.984;20.426;2023-04-27T06:51:41;99642.50;;;8.20;64.00
52745;BME280;38637;49.984;20.426;2023-04-27T06:54:06;99643.19;;;8.27;64.58
52745;BME280;38637;49.984;20.426;2023-04-27T06:56:31;99632.16;;;8.34;63.37
52745;BME280;38637;49.984;20.426;2023-04-27T06:58:57;99652.16;;;8.51;62.79
52745;BME280;38637;49.984;20.426;2023-04-27T07:01:22;99644.72;;;8.76;62.06
52745;BME280;38637;49.984;20.426;2023-04-27T07:03:47;99642.56;;;9.06;61.20
52745;BME280;38637;49.984;20.426;2023-04-27T07:06:13;99644.66;;;9.33;60.16
52745;BME280;38637;49.984;20.426;2023-04-27T07:08:39;99639.22;;;9.50;59.27
52745;BME280;38637;49.984;20.426;2023-04-27T07:11:04;99644.72;;;9.55;58.37
52745;BME280;38637;49.984;20.426;2023-04-27T07:13:30;99645.59;;;9.55;57.42
52745;BME280;38637;49.984;20.426;2023-04-27T07:15:55;99642.91;;;9.77;57.24
52745;BME280;38637;49.984;20.426;2023-04-27T07:18:25;99654.78;;;10.05;56.74
52745;BME280;38637;49.984;20.426;2023-04-27T07:20:52;99652.50;;;10.19;55.55
52745;BME280;38637;49.984;20.426;2023-04-27T07:23:18;99654.09;;;10.15;55.58
52745;BME280;38637;49.984;20.426;2023-04-27T07:25:43;99646.00;;;10.20;55.18
52745;BME280;38637;49.984;20.426;2023-04-27T07:28:09;99659.16;;;10.06;53.48
52745;BME280;38637;49.984;20.426;2023-04-27T07:30:35;99652.97;;;9.94;52.58
52745;BME280;38637;49.984;20.426;2023-04-27T07:33:01;99667.19;;;9.96;52.53
52745;BME280;38637;49.984;20.426;2023-04-27T07:35:26;99651.78;;;10.06;51.52
52745;BME280;38637;49.984;20.426;2023-04-27T07:37:52;99659.47;;;10.26;49.80
52745;BME280;38637;49.984;20.426;2023-04-27T07:40:17;99662.66;;;10.40;49.16
52745;BME280;38637;49.984;20.426;2023-04-27T07:42:43;99657.84;;;10.47;49.06
52745;BME280;38637;49.984;20.426;2023-04-27T07:45:10;99658.97;;;10.73;49.71
52745;BME280;38637;49.984;20.426;2023-04-27T07:47:36;99658.22;;;10.78;47.61
52745;BME280;38637;49.984;20.426;2023-04-27T07:50:03;99654.25;;;10.91;47.46
52745;BME280;38637;49.984;20.426;2023-04-27T07:52:29;99650.34;;;11.09;47.10
52745;BME280;38637;49.984;20.426;2023-04-27T07:54:54;99650.94;;;11.16;47.60
52745;BME280;38637;49.984;20.426;2023-04-27T07:57:19;99658.31;;;10.88;45.81
52745;BME280;38637;49.984;20.426;2023-04-27T07:59:45;99653.56;;;10.78;46.35
52745;BME280;38637;49.984;20.426;2023-04-27T08:02:11;99647.97;;;10.90;46.57
52745;BME280;38637;49.984;20.426;2023-04-27T08:04:37;99666.09;;;10.74;46.61
52745;BME280;38637;49.984;20.426;2023-04-27T08:07:02;99659.88;;;10.57;46.16
52745;BME280;38637;49.984;20.426;2023-04-27T08:09:27;99662.91;;;10.61;45.95
52745;BME280;38637;49.984;20.426;2023-04-27T08:11:52;99651.53;;;10.69;45.50
52745;BME280;38637;49.984;20.426;2023-04-27T08:14:18;99659.97;;;11.16;45.67
52745;BME280;38637;49.984;20.426;2023-04-27T08:16:43;99662.53;;;11.28;43.15
52745;BME280;38637;49.984;20.426;2023-04-27T08:19:09;99658.13;;;11.54;42.83
52745;BME280;38637;49.984;20.426;2023-04-27T08:21:37;99656.59;;;11.68;44.33
52745;BME280;38637;49.984;20.426;2023-04-27T08:24:06;99657.53;;;11.20;43.24
52745;BME280;38637;49.984;20.426;2023-04-27T08:26:32;99653.22;;;11.24;43.09
52745;BME280;38637;49.984;20.426;2023-04-27T08:28:57;99654.78;;;11.20;43.91
52745;BME280;38637;49.984;20.426;2023-04-27T08:31:24;99656.16;;;10.90;44.74
52745;BME280;38637;49.984;20.426;2023-04-27T08:33:50;99664.88;;;10.65;45.41
52745;BME280;38637;49.984;20.426;2023-04-27T08:36:16;99672.25;;;10.43;45.64
52745;BME280;38637;49.984;20.426;2023-04-27T08:38:41;99677.38;;;10.22;46.80
52745;BME280;38637;49.984;20.426;2023-04-27T08:41:07;99670.28;;;10.21;45.15
52745;BME280;38637;49.984;20.426;2023-04-27T08:43:35;99671.84;;;10.34;44.95
52745;BME280;38637;49.984;20.426;2023-04-27T08:46:01;99668.69;;;10.64;44.60
52745;BME280;38637;49.984;20.426;2023-04-27T08:48:27;99658.41;;;10.98;44.43
52745;BME280;38637;49.984;20.426;2023-04-27T08:50:55;99660.06;;;11.26;43.39
52745;BME280;38637;49.984;20.426;2023-04-27T08:53:21;99666.50;;;11.42;44.71
52745;BME280;38637;49.984;20.426;2023-04-27T08:55:50;99664.16;;;11.56;44.31
52745;BME280;38637;49.984;20.426;2023-04-27T08:58:15;99675.25;;;11.44;45.96
52745;BME280;38637;49.984;20.426;2023-04-27T09:00:42;99680.91;;;11.06;42.52
52745;BME280;38637;49.984;20.426;2023-04-27T09:03:20;99673.63;;;10.67;41.20
52745;BME280;38637;49.984;20.426;2023-04-27T09:05:46;99668.13;;;10.62;40.88
52745;BME280;38637;49.984;20.426;2023-04-27T09:08:12;99676.25;;;10.57;43.39
52745;BME280;38637;49.984;20.426;2023-04-27T09:10:45;99676.44;;;10.50;46.82
52745;BME280;38637;49.984;20.426;2023-04-27T09:13:10;99677.56;;;10.54;47.25
52745;BME280;38637;49.984;20.426;2023-04-27T09:15:48;99671.72;;;10.68;47.65
52745;BME280;38637;49.984;20.426;2023-04-27T09:18:15;99673.88;;;10.88;47.71
52745;BME280;38637;49.984;20.426;2023-04-27T09:20:49;99667.63;;;11.19;48.13
52745;BME280;38637;49.984;20.426;2023-04-27T09:23:28;99675.59;;;11.53;47.12
52745;BME280;38637;49.984;20.426;2023-04-27T09:25:58;99664.09;;;11.83;46.57
52745;BME280;38637;49.984;20.426;2023-04-27T09:28:25;99667.34;;;12.12;45.77
52745;BME280;38637;49.984;20.426;2023-04-27T09:30:56;99666.09;;;12.35;45.69
52745;BME280;38637;49.984;20.426;2023-04-27T09:33:25;99662.31;;;12.52;45.17
52745;BME280;38637;49.984;20.426;2023-04-27T09:35:52;99653.28;;;12.51;44.36
52745;BME280;38637;49.984;20.426;2023-04-27T09:38:18;99657.09;;;12.40;44.17
52745;BME280;38637;49.984;20.426;2023-04-27T09:40:44;99657.22;;;12.13;44.05
52745;BME280;38637;49.984;20.426;2023-04-27T09:43:10;99651.50;;;11.82;44.45
52745;BME280;38637;49.984;20.426;2023-04-27T09:45:36;99661.44;;;11.29;44.04
52745;BME280;38637;49.984;20.426;2023-04-27T09:48:04;99681.00;;;10.67;46.45
52745;BME280;38637;49.984;20.426;2023-04-27T09:50:30;99693.13;;;10.32;49.44
52745;BME280;38637;49.984;20.426;2023-04-27T09:52:58;99684.75;;;10.22;52.52
52745;BME280;38637;49.984;20.426;2023-04-27T09:55:31;99683.75;;;10.45;51.35
52745;BME280;38637;49.984;20.426;2023-04-27T09:58:41;99676.31;;;10.62;51.41
52745;BME280;38637;49.984;20.426;2023-04-27T10:09:46;99674.31;;;11.61;48.25
52745;BME280;38637;49.984;20.426;2023-04-27T10:14:50;99662.41;;;12.14;47.08
52745;BME280;38637;49.984;20.426;2023-04-27T10:17:16;99660.06;;;12.38;46.52
52745;BME280;38637;49.984;20.426;2023-04-27T10:19:53;99651.66;;;12.55;44.67
52745;BME280;38637;49.984;20.426;2023-04-27T10:22:21;99645.97;;;12.72;45.05
52745;BME280;38637;49.984;20.426;2023-04-27T10:24:49;99644.09;;;12.83;44.81
52745;BME280;38637;49.984;20.426;2023-04-27T10:27:17;99639.72;;;12.87;43.66
52745;BME280;38637;49.984;20.426;2023-04-27T10:29:45;99640.81;;;12.86;43.95
52745;BME280;38637;49.984;20.426;2023-04-27T10:32:24;99638.63;;;12.93;43.79
52745;BME280;38637;49.984;20.426;2023-04-27T10:35:03;99632.88;;;12.90;42.98
52745;BME280;38637;49.984;20.426;2023-04-27T10:37:39;99640.56;;;12.93;43.20
52745;BME280;38637;49.984;20.426;2023-04-27T10:40:07;99630.69;;;12.97;43.05
52745;BME280;38637;49.984;20.426;2023-04-27T10:42:35;99631.81;;;13.11;43.00
52745;BME280;38637;49.984;20.426;2023-04-27T10:45:00;99633.19;;;13.24;41.89
52745;BME280;38637;49.984;20.426;2023-04-27T10:47:42;99628.59;;;13.35;41.36
52745;BME280;38637;49.984;20.426;2023-04-27T10:50:09;99632.69;;;13.52;41.84
52745;BME280;38637;49.984;20.426;2023-04-27T10:52:42;99636.25;;;13.84;40.52
52745;BME280;38637;49.984;20.426;2023-04-27T10:55:15;99631.59;;;13.48;37.66
52745;BME280;38637;49.984;20.426;2023-04-27T10:57:51;99631.56;;;13.23;38.71
52745;BME280;38637;49.984;20.426;2023-04-27T11:00:31;99625.97;;;12.72;38.96
52745;BME280;38637;49.984;20.426;2023-04-27T11:03:10;99620.91;;;12.38;40.20
52745;BME280;38637;49.984;20.426;2023-04-27T11:05:36;99637.38;;;11.95;41.33
52745;BME280;38637;49.984;20.426;2023-04-27T11:08:12;99640.09;;;11.58;40.60
52745;BME280;38637;49.984;20.426;2023-04-27T11:10:39;99643.75;;;11.37;41.43
52745;BME280;38637;49.984;20.426;2023-04-27T11:13:11;99641.66;;;11.17;41.19
52745;BME280;38637;49.984;20.426;2023-04-27T11:15:57;99649.16;;;10.99;41.52
52745;BME280;38637;49.984;20.426;2023-04-27T11:18:28;99648.72;;;11.13;41.36
52745;BME280;38637;49.984;20.426;2023-04-27T11:21:06;99646.78;;;11.40;42.60
52745;BME280;38637;49.984;20.426;2023-04-27T11:23:32;99652.03;;;11.47;43.75
52745;BME280;38637;49.984;20.426;2023-04-27T11:26:28;99651.41;;;12.04;43.14
52745;BME280;38637;49.984;20.426;2023-04-27T11:29:05;99649.41;;;12.42;41.66
52745;BME280;38637;49.984;20.426;2023-04-27T11:31:43;99656.88;;;12.57;41.90
52745;BME280;38637;49.984;20.426;2023-04-27T11:34:22;99655.31;;;12.81;40.21
52745;BME280;38637;49.984;20.426;2023-04-27T11:39:22;99640.59;;;13.08;40.40
52745;BME280;38637;49.984;20.426;2023-04-27T11:41:47;99647.72;;;13.24;39.95
52745;BME280;38637;49.984;20.426;2023-04-27T11:44:12;99645.31;;;13.33;38.92
52745;BME280;38637;49.984;20.426;2023-04-27T11:46:38;99640.09;;;13.42;38.76
52745;BME280;38637;49.984;20.426;2023-04-27T11:49:05;99638.19;;;13.57;38.55
52745;BME280;38637;49.984;20.426;2023-04-27T11:51:32;99635.44;;;13.63;38.35
52745;BME280;38637;49.984;20.426;2023-04-27T11:54:05;99644.50;;;13.63;37.99
52745;BME280;38637;49.984;20.426;2023-04-27T11:56:39;99634.91;;;13.66;38.52
52745;BME280;38637;49.984;20.426;2023-04-27T11:59:05;99630.78;;;13.53;38.38
52745;BME280;38637;49.984;20.426;2023-04-27T12:01:41;99636.22;;;13.22;38.60
52745;BME280;38637;49.984;20.426;2023-04-27T12:04:06;99638.06;;;12.81;39.07
52745;BME280;38637;49.984;20.426;2023-04-27T12:06:32;99630.03;;;12.59;39.22
52745;BME280;38637;49.984;20.426;2023-04-27T12:08:57;99635.78;;;12.52;39.69
52745;BME280;38637;49.984;20.426;2023-04-27T12:11:26;99632.44;;;12.45;39.26
52745;BME280;38637;49.984;20.426;2023-04-27T12:13:52;99631.38;;;12.46;39.05
52745;BME280;38637;49.984;20.426;2023-04-27T12:16:18;99644.22;;;12.46;40.26
52745;BME280;38637;49.984;20.426;2023-04-27T12:18:45;99637.22;;;12.85;40.69
52745;BME280;38637;49.984;20.426;2023-04-27T12:21:11;99632.38;;;13.18;41.66
52745;BME280;38637;49.984;20.426;2023-04-27T12:23:37;99621.44;;;13.33;40.49
52745;BME280;38637;49.984;20.426;2023-04-27T12:26:02;99633.47;;;13.17;41.07
52745;BME280;38637;49.984;20.426;2023-04-27T12:28:27;99632.63;;;13.06;39.63
52745;BME280;38637;49.984;20.426;2023-04-27T12:30:53;99649.56;;;12.83;39.70
52745;BME280;38637;49.984;20.426;2023-04-27T12:33:19;99642.47;;;12.92;39.82
52745;BME280;38637;49.984;20.426;2023-04-27T12:35:44;99644.38;;;12.92;40.20
52745;BME280;38637;49.984;20.426;2023-04-27T12:38:09;99649.63;;;13.08;40.96
52745;BME280;38637;49.984;20.426;2023-04-27T12:40:35;99637.91;;;13.33;39.98
52745;BME280;38637;49.984;20.426;2023-04-27T12:43:02;99642.78;;;13.21;39.60
52745;BME280;38637;49.984;20.426;2023-04-27T12:45:27;99648.00;;;13.23;39.64
52745;BME280;38637;49.984;20.426;2023-04-27T12:47:52;99657.13;;;13.54;39.84
52745;BME280;38637;49.984;20.426;2023-04-27T12:50:19;99649.41;;;13.61;39.34
52745;BME280;38637;49.984;20.426;2023-04-27T12:52:44;99653.28;;;13.75;38.99
52745;BME280;38637;49.984;20.426;2023-04-27T12:55:10;99657.69;;;13.56;37.80
52745;BME280;38637;49.984;20.426;2023-04-27T12:57:36;99647.78;;;13.60;37.11
52745;BME280;38637;49.984;20.426;2023-04-27T13:00:01;99645.84;;;13.55;37.58
52745;BME280;38637;49.984;20.426;2023-04-27T13:02:27;99647.22;;;13.43;38.97
52745;BME280;38637;49.984;20.426;2023-04-27T13:04:52;99638.09;;;13.06;41.76
52745;BME280;38637;49.984;20.426;2023-04-27T13:07:17;99646.25;;;12.76;41.68